Time,TemperatureF,DewpointF,PressureIn,WindDirection,WindDirectionDegrees,WindSpeedMPH,WindSpeedGustMPH,Humidity,HourlyPrecipIn,Conditions,Clouds,dailyrainin,SoftwareType,DateUTC
2013-05-31 00:05:00,48.5,48.5,30.22,SSW,199,0.0,0.0,100,0.00,,,0.00,Wunderground v.1.15,2013-05-31 07:05:00,
2013-05-31 00:35:00,47.9,47.9,30.23,SSW,199,0.0,0.0,100,0.00,,,0.00,Wunderground v.1.15,2013-05-31 07:35:00,
2013-05-31 01:05:00,47.4,47.4,30.23,SSW,199,0.0,0.0,100,0.00,,,0.00,Wunderground v.1.15,2013-05-31 08:05:00,
2013-05-31 01:35:00,47.0,47.0,30.24,ESE,110,0.0,0.0,100,0.00,,,0.00,Wunderground v.1.15,2013-05-31 08:35:00,
2013-05-31 02:05:00,46.7,46.7,30.23,ENE,72,0.0,0.0,100,0.00,,,0.00,Wunderground v.1.15,2013-05-31 09:05:00,
2013-05-31 02:35:00,46.4,46.4,30.24,ENE,66,0.0,0.0,100,0.00,,,0.00,Wunderground v.1.15,2013-05-31 09:35:00,
2013-05-31 03:05:00,46.5,46.5,30.24,ENE,66,0.0,1.0,100,0.00,,,0.00,Wunderground v.1.15,2013-05-31 10:05:00,
2013-05-31 03:35:00,46.2,46.2,30.24,ENE,69,0.0,0.0,100,0.00,,,0.00,Wunderground v.1.15,2013-05-31 10:35:00,
2013-05-31 04:05:00,45.5,45.5,30.23,East,92,0.0,0.0,100,0.00,,,0.00,Wunderground v.1.15,2013-05-31 11:05:00,
2013-05-31 04:35:00,45.2,45.2,30.23,ENE,66,0.0,0.0,100,0.00,,,0.00,Wunderground v.1.15,2013-05-31 11:35:00,
2013-05-31 05:05:00,45.2,45.2,30.24,East,80,0.0,0.0,100,0.00,,,0.00,Wunderground v.1.15,2013-05-31 12:05:00,
2013-05-31 05:35:00,45.4,45.4,30.25,East,99,0.0,0.0,100,0.00,,,0.00,Wunderground v.1.15,2013-05-31 12:35:00,
2013-05-31 06:05:00,45.1,45.1,30.25,ENE,68,0.0,0.0,100,0.00,,,0.00,Wunderground v.1.15,2013-05-31 13:05:00,
2013-05-31 06:35:00,45.8,45.8,30.25,ENE,71,0.0,0.0,100,0.00,,,0.00,Wunderground v.1.15,2013-05-31 13:35:00,
2013-05-31 07:05:00,47.3,47.3,30.26,East,89,0.0,0.0,100,0.00,,,0.00,Wunderground v.1.15,2013-05-31 14:05:00,
2013-05-31 07:35:00,49.2,49.2,30.25,East,86,0.0,0.0,100,0.00,,,0.00,Wunderground v.1.15,2013-05-31 14:35:00,
2013-05-31 08:05:00,52.8,52.8,30.27,ENE,73,0.0,0.0,100,0.00,,,0.00,Wunderground v.1.15,2013-05-31 15:05:00,
2013-05-31 08:35:00,55.3,55.3,30.27,East,100,0.0,0.0,100,0.00,,,0.00,Wunderground v.1.15,2013-05-31 15:35:00,
2013-05-31 09:05:00,57.5,55.2,30.27,ENE,72,0.0,0.0,92,0.00,,,0.00,Wunderground v.1.15,2013-05-31 16:05:00,
2013-05-31 09:35:00,61.6,57.4,30.26,NE,55,0.0,0.0,86,0.00,,,0.00,Wunderground v.1.15,2013-05-31 16:35:00,
2013-05-31 10:05:00,63.4,59.1,30.26,ENE,58,0.0,0.0,86,0.00,,,0.00,Wunderground v.1.15,2013-05-31 17:05:00,
2013-05-31 10:35:00,62.4,54.0,30.25,ENE,58,0.0,0.0,74,0.00,,,0.00,Wunderground v.1.15,2013-05-31 17:35:00,
2013-05-31 11:05:00,63.4,55.3,30.25,SW,220,0.0,0.0,75,0.00,,,0.00,Wunderground v.1.15,2013-05-31 18:05:00,
2013-05-31 11:35:00,65.0,54.6,30.25,SW,217,0.0,0.0,69,0.00,,,0.00,Wunderground v.1.15,2013-05-31 18:35:00,
2013-05-31 12:05:00,66.4,54.7,30.24,SSE,150,0.0,0.0,66,0.00,,,0.00,Wunderground v.1.15,2013-05-31 19:05:00,
2013-05-31 12:35:00,66.3,54.6,30.23,WSW,240,0.0,0.0,66,0.00,,,0.00,Wunderground v.1.15,2013-05-31 19:35:00,
2013-05-31 13:05:00,66.3,54.6,30.23,WSW,251,0.0,0.0,66,0.00,,,0.00,Wunderground v.1.15,2013-05-31 20:05:00,
2013-05-31 13:35:00,67.4,55.6,30.23,West,264,0.0,0.0,66,0.00,,,0.00,Wunderground v.1.15,2013-05-31 20:35:00,
2013-05-31 14:05:00,67.6,55.0,30.23,SE,143,0.0,0.0,64,0.00,,,0.00,Wunderground v.1.15,2013-05-31 21:05:00,
2013-05-31 14:35:00,68.3,55.2,30.22,South,175,0.0,0.0,63,0.00,,,0.00,Wunderground v.1.15,2013-05-31 21:35:00,
2013-05-31 15:05:00,68.1,54.1,30.22,SSE,147,0.0,0.0,61,0.00,,,0.00,Wunderground v.1.15,2013-05-31 22:05:00,
2013-05-31 15:35:00,68.3,53.4,30.22,SSE,161,0.0,0.0,59,0.00,,,0.00,Wunderground v.1.15,2013-05-31 22:35:00,
2013-05-31 16:05:00,66.8,54.2,30.21,SSE,150,0.0,0.0,64,0.00,,,0.00,Wunderground v.1.15,2013-05-31 23:05:00,
2013-05-31 16:35:00,65.3,52.8,30.21,SSE,157,0.0,0.0,64,0.00,,,0.00,Wunderground v.1.15,2013-05-31 23:35:00,
2013-05-31 17:05:00,64.5,52.5,30.20,NE,54,0.0,0.0,65,0.00,,,0.00,Wunderground v.1.15,2013-06-01 00:05:00,
2013-05-31 17:35:00,63.7,52.9,30.20,WSW,258,0.0,0.0,68,0.00,,,0.00,Wunderground v.1.15,2013-06-01 00:35:00,
2013-05-31 18:05:00,62.6,53.4,30.19,East,99,0.0,0.0,72,0.00,,,0.00,Wunderground v.1.15,2013-06-01 01:05:00,
2013-05-31 18:35:00,62.0,53.6,30.19,SSE,160,0.0,0.0,74,0.00,,,0.00,Wunderground v.1.15,2013-06-01 01:35:00,
2013-05-31 19:05:00,60.4,52.8,30.18,SSE,168,0.0,0.0,76,0.00,,,0.00,Wunderground v.1.15,2013-06-01 02:05:00,
2013-05-31 19:35:00,58.0,54.2,30.18,ESE,110,0.0,0.0,87,0.00,,,0.00,Wunderground v.1.15,2013-06-01 02:35:00,
2013-05-31 20:05:00,57.8,55.2,30.18,SE,126,0.0,0.0,91,0.00,,,0.00,Wunderground v.1.15,2013-06-01 03:05:00,
2013-05-31 20:35:00,57.0,55.0,30.18,SSE,161,0.0,0.0,93,0.00,,,0.00,Wunderground v.1.15,2013-06-01 03:35:00,
2013-05-31 21:05:00,56.5,55.1,30.19,SSE,161,0.0,0.0,95,0.00,,,0.00,Wunderground v.1.15,2013-06-01 04:05:00,
2013-05-31 21:35:00,55.0,53.6,30.19,SSE,161,0.0,0.0,95,0.00,,,0.00,Wunderground v.1.15,2013-06-01 04:35:00,
2013-05-31 22:05:00,54.1,52.7,30.20,SSE,161,0.0,0.0,95,0.00,,,0.00,Wunderground v.1.15,2013-06-01 05:05:00,
2013-05-31 22:35:00,53.1,51.7,30.20,SSE,161,0.0,0.0,95,0.00,,,0.00,Wunderground v.1.15,2013-06-01 05:35:00,
2013-05-31 23:05:00,52.2,51.9,30.20,SSE,161,0.0,0.0,99,0.00,,,0.00,Wunderground v.1.15,2013-06-01 06:05:00,
2013-05-31 23:35:00,51.4,51.4,30.20,SSE,161,0.0,0.0,100,0.00,,,0.00,Wunderground v.1.15,2013-06-01 06:35:00,